Time;durP1;ratioP1;P1;durP2;ratioP2;P2;SDS_P1;SDS_P2;PMS_P1;PMS_P2;Temp;Humidity;BMP_temperature;BMP_pressure;BME280_temperature;BME280_humidity;BME280_pressure;Samples;Min_cycle;Max_cycle;Signal;HPM_P1;HPM_P2
2022/03/21 00:00:55;;;;;;;76.55;47.42;;;;;;;;;;4792593;29;20080;-68
2022/03/21 00:03:22;;;;;;;78.38;48.75;;;;;;;;;;4820908;29;20059;-68
2022/03/21 00:05:48;;;;;;;74.75;48.30;;;;;;;;;;4790132;30;20055;-68
2022/03/21 00:08:17;;;;;;;70.10;46.40;;;;;;;;;;4790443;29;20060;-68
2022/03/21 00:10:43;;;;;;;72.13;47.17;;;;;;;;;;4790939;30;20497;-67
2022/03/21 00:13:14;;;;;;;71.90;47.17;;;;;;;;;;4791409;30;20507;-68
2022/03/21 00:15:40;;;;;;;74.63;46.17;;;;;;;;;;4791166;30;20126;-67
2022/03/21 00:18:06;;;;;;;70.90;45.33;;;;;;;;;;4820185;29;20047;-67
2022/03/21 00:20:33;;;;;;;73.30;45.88;;;;;;;;;;4791913;30;20059;-67
2022/03/21 00:22:59;;;;;;;68.10;44.20;;;;;;;;;;4791333;30;20083;-68
2022/03/21 00:25:26;;;;;;;67.90;44.00;;;;;;;;;;4791321;30;20395;-68
2022/03/21 00:27:52;;;;;;;63.60;41.38;;;;;;;;;;4790798;30;20055;-68
2022/03/21 00:30:18;;;;;;;64.72;42.42;;;;;;;;;;4791188;30;20062;-68
2022/03/21 00:32:45;;;;;;;63.10;41.20;;;;;;;;;;4791120;30;20055;-68
2022/03/21 00:35:11;;;;;;;;;;;;;;;;;;4791527;30;20089;-68
2022/03/21 00:37:38;;;;;;;68.57;40.88;;;;;;;;;;4791011;30;19932;-68
2022/03/21 00:40:07;;;;;;;68.38;42.65;;;;;;;;;;4791767;30;20108;-68
2022/03/21 00:42:35;;;;;;;59.50;39.90;;;;;;;;;;4790382;30;20051;-69
2022/03/21 00:45:05;;;;;;;62.45;41.55;;;;;;;;;;4791096;30;20125;-69
2022/03/21 00:47:32;;;;;;;63.63;40.63;;;;;;;;;;4789577;30;20062;-68
2022/03/21 00:49:58;;;;;;;;;;;;;;;;;;4790391;30;20051;-68
2022/03/21 00:52:24;;;;;;;63.05;38.75;;;;;;;;;;4791696;30;20348;-68
2022/03/21 00:54:50;;;;;;;64.88;41.47;;;;;;;;;;4775324;30;20051;-68
2022/03/21 00:57:16;;;;;;;57.83;38.13;;;;;;;;;;4791250;30;20051;-68
2022/03/21 00:59:42;;;;;;;57.45;37.67;;;;;;;;;;4790659;30;20523;-68
2022/03/21 01:02:08;;;;;;;61.33;37.38;;;;;;;;;;4775208;30;20383;-68
2022/03/21 01:04:36;;;;;;;60.45;36.85;;;;;;;;;;4790325;29;20134;-68
2022/03/21 01:07:04;;;;;;;58.85;37.63;;;;;;;;;;4790542;30;20113;-68
2022/03/21 01:09:30;;;;;;;61.20;37.95;;;;;;;;;;4817422;29;20059;-68
2022/03/21 01:11:56;;;;;;;61.60;37.95;;;;;;;;;;4841453;29;20058;-68
2022/03/21 01:14:22;;;;;;;56.45;37.05;;;;;;;;;;4826112;29;20058;-68
2022/03/21 01:16:50;;;;;;;55.28;35.40;;;;;;;;;;4810753;29;20092;-68
2022/03/21 01:19:16;;;;;;;54.35;36.55;;;;;;;;;;4827285;29;20050;-68
2022/03/21 01:21:43;;;;;;;55.97;36.15;;;;;;;;;;4827279;29;20058;-68
2022/03/21 01:24:10;;;;;;;56.15;34.38;;;;;;;;;;4826608;29;20563;-69
2022/03/21 01:26:36;;;;;;;50.55;33.90;;;;;;;;;;4825456;29;20062;-68
2022/03/21 01:29:02;;;;;;;52.03;33.95;;;;;;;;;;4840771;29;20069;-68
2022/03/21 01:31:29;;;;;;;51.75;33.53;;;;;;;;;;4780896;29;20061;-68
2022/03/21 01:33:55;;;;;;;49.13;32.40;;;;;;;;;;4826555;29;20058;-68
2022/03/21 01:36:22;;;;;;;48.65;31.85;;;;;;;;;;4826885;29;20103;-68
2022/03/21 01:38:48;;;;;;;49.20;31.90;;;;;;;;;;4827211;29;20046;-68
2022/03/21 01:41:14;;;;;;;50.47;31.90;;;;;;;;;;4826949;29;20215;-68
2022/03/21 01:43:59;;;;;;;52.53;32.10;;;;;;;;;;4827716;29;20058;-68
2022/03/21 01:46:27;;;;;;;50.05;30.77;;;;;;;;;;4827342;29;20085;-69
2022/03/21 01:48:54;;;;;;;50.10;29.65;;;;;;;;;;4841588;29;20064;-69
2022/03/21 01:51:20;;;;;;;45.65;29.95;;;;;;;;;;4826275;29;20106;-68
2022/03/21 01:56:32;;;;;;;45.45;29.83;;;;;;;;;;4826242;29;20050;-68
2022/03/21 01:58:58;;;;;;;;;;;;;;;;;;4825626;29;20050;-68
2022/03/21 02:01:24;;;;;;;44.88;28.20;;;;;;;;;;4826387;29;19936;-68
2022/03/21 02:03:50;;;;;;;46.72;28.92;;;;;;;;;;4826563;29;20115;-68
2022/03/21 02:06:16;;;;;;;45.72;28.75;;;;;;;;;;4824947;29;20137;-68
2022/03/21 02:08:43;;;;;;;46.60;27.17;;;;;;;;;;4825610;29;20503;-68
2022/03/21 02:11:10;;;;;;;43.38;28.98;;;;;;;;;;4826041;29;20062;-68
2022/03/21 02:13:36;;;;;;;43.72;26.63;;;;;;;;;;4826774;29;20099;-68
2022/03/21 02:16:04;;;;;;;46.17;29.23;;;;;;;;;;4825820;29;20065;-68
2022/03/21 02:18:31;;;;;;;45.47;25.95;;;;;;;;;;4825904;29;20058;-68
2022/03/21 02:20:59;;;;;;;41.80;26.05;;;;;;;;;;4826203;29;20054;-68
2022/03/21 02:23:42;;;;;;;41.92;27.40;;;;;;;;;;4825830;29;20054;-68
2022/03/21 02:26:08;;;;;;;41.80;26.40;;;;;;;;;;4839878;29;20090;-68
2022/03/21 02:28:34;;;;;;;;;;;;;;;;;;4841164;29;20107;-68
2022/03/21 02:31:01;;;;;;;47.45;25.77;;;;;;;;;;4826252;29;19928;-68
2022/03/21 02:33:27;;;;;;;42.72;26.25;;;;;;;;;;4825699;29;20437;-69
2022/03/21 02:35:56;;;;;;;41.80;26.85;;;;;;;;;;4839817;29;20058;-68
2022/03/21 02:38:22;;;;;;;42.85;25.10;;;;;;;;;;4825379;29;20492;-68
2022/03/21 02:40:48;;;;;;;45.63;26.15;;;;;;;;;;4839673;29;20050;-68
2022/03/21 02:43:16;;;;;;;47.50;25.00;;;;;;;;;;4825332;29;20046;-68
2022/03/21 02:45:42;;;;;;;40.45;24.88;;;;;;;;;;4808933;29;20111;-68
2022/03/21 02:48:08;;;;;;;44.10;25.35;;;;;;;;;;4839578;29;20058;-68
2022/03/21 02:50:49;;;;;;;38.20;23.35;;;;;;;;;;4809350;29;20054;-68
2022/03/21 02:53:17;;;;;;;39.28;23.67;;;;;;;;;;4809857;29;20050;-68
2022/03/21 02:55:43;;;;;;;42.78;23.58;;;;;;;;;;4825760;29;20054;-69
2022/03/21 02:58:09;;;;;;;44.15;25.58;;;;;;;;;;4825677;29;20053;-68
2022/03/21 03:00:35;;;;;;;;;;;;;;;;;;4840603;29;20092;-68
2022/03/21 03:03:02;;;;;;;40.22;23.20;;;;;;;;;;4826239;29;19925;-69
2022/03/21 03:05:28;;;;;;;41.63;22.70;;;;;;;;;;4839566;29;20066;-68
2022/03/21 03:07:54;;;;;;;39.70;24.77;;;;;;;;;;4825763;29;20048;-68
2022/03/21 03:10:21;;;;;;;40.95;22.98;;;;;;;;;;4825101;29;20557;-68
2022/03/21 03:12:47;;;;;;;40.13;23.25;;;;;;;;;;4839398;29;20103;-69
2022/03/21 03:15:14;;;;;;;36.25;22.10;;;;;;;;;;4825447;29;20060;-69
2022/03/21 03:17:40;;;;;;;41.08;23.65;;;;;;;;;;4840087;29;20106;-69
2022/03/21 03:20:06;;;;;;;39.42;23.95;;;;;;;;;;4809223;29;20049;-70
2022/03/21 03:22:32;;;;;;;39.20;24.25;;;;;;;;;;4825100;29;20141;-69
2022/03/21 03:24:58;;;;;;;43.17;23.52;;;;;;;;;;4839724;29;20058;-69
2022/03/21 03:27:25;;;;;;;36.97;22.70;;;;;;;;;;4825750;29;20050;-71
2022/03/21 03:29:51;;;;;;;38.45;21.77;;;;;;;;;;4828780;29;20118;-69
2022/03/21 03:32:17;;;;;;;38.00;22.33;;;;;;;;;;4828362;29;20046;-69
2022/03/21 03:34:43;;;;;;;37.35;20.63;;;;;;;;;;4828896;29;20042;-68
2022/03/21 03:37:09;;;;;;;38.45;22.60;;;;;;;;;;4828921;29;20047;-69
2022/03/21 03:39:35;;;;;;;39.28;22.98;;;;;;;;;;4812820;29;20129;-69
2022/03/21 03:42:01;;;;;;;37.55;22.17;;;;;;;;;;4828543;29;20050;-69
2022/03/21 03:44:27;;;;;;;37.53;22.65;;;;;;;;;;4811974;29;20129;-68
2022/03/21 03:46:54;;;;;;;41.50;24.30;;;;;;;;;;4828167;29;20076;-68
2022/03/21 03:49:21;;;;;;;40.22;24.00;;;;;;;;;;4842093;29;20579;-67
2022/03/21 03:51:47;;;;;;;39.90;25.33;;;;;;;;;;4812907;29;20124;-68
2022/03/21 03:54:13;;;;;;;40.13;24.80;;;;;;;;;;4827754;29;20055;-68
2022/03/21 03:56:39;;;;;;;39.10;24.10;;;;;;;;;;4828180;29;20098;-68
2022/03/21 03:59:05;;;;;;;44.28;24.40;;;;;;;;;;4828823;29;20051;-69
2022/03/21 04:01:31;;;;;;;38.47;24.10;;;;;;;;;;4827960;29;20062;-68
2022/03/21 04:03:59;;;;;;;43.95;24.92;;;;;;;;;;4827576;29;20137;-68
2022/03/21 04:06:28;;;;;;;39.08;24.10;;;;;;;;;;4828105;29;20054;-68
2022/03/21 04:08:54;;;;;;;38.30;24.80;;;;;;;;;;4827729;29;20411;-69
2022/03/21 04:11:20;;;;;;;43.70;23.08;;;;;;;;;;4828775;29;20135;-68
2022/03/21 04:13:47;;;;;;;;;;;;;;;;;;4828704;29;20134;-68
2022/03/21 04:16:14;;;;;;;43.20;25.65;;;;;;;;;;4827657;29;19925;-68
2022/03/21 04:18:40;;;;;;;40.25;23.92;;;;;;;;;;4812500;29;20059;-68
2022/03/21 04:21:06;;;;;;;40.40;25.70;;;;;;;;;;4828441;29;20054;-68
2022/03/21 04:23:32;;;;;;;42.90;24.98;;;;;;;;;;4826264;29;20057;-68
2022/03/21 04:25:59;;;;;;;43.78;24.05;;;;;;;;;;4842018;29;20065;-68
2022/03/21 04:28:25;;;;;;;39.83;24.30;;;;;;;;;;4827542;29;20529;-68
2022/03/21 04:30:51;;;;;;;40.03;23.38;;;;;;;;;;4841810;29;20054;-68
2022/03/21 04:33:17;;;;;;;37.85;23.58;;;;;;;;;;4811474;29;20051;-68
2022/03/21 04:35:44;;;;;;;41.60;24.45;;;;;;;;;;4841477;29;20079;-68
2022/03/21 04:38:15;;;;;;;43.20;23.73;;;;;;;;;;4810657;29;20492;-68
2022/03/21 04:40:42;;;;;;;48.50;25.15;;;;;;;;;;4840881;29;20058;-68
2022/03/21 04:43:08;;;;;;;41.83;25.35;;;;;;;;;;4841727;29;20057;-68
2022/03/21 04:45:35;;;;;;;;;;;;;;;;;;4842251;29;20191;-68
2022/03/21 04:48:01;;;;;;;42.75;25.05;;;;;;;;;;4827754;29;20043;-68
2022/03/21 04:50:28;;;;;;;42.10;24.30;;;;;;;;;;4827400;29;20046;-68
2022/03/21 04:52:54;;;;;;;41.03;24.10;;;;;;;;;;4811376;29;20106;-68
2022/03/21 04:55:20;;;;;;;43.10;25.45;;;;;;;;;;4827298;29;20137;-68
2022/03/21 04:57:46;;;;;;;43.15;24.05;;;;;;;;;;4827053;29;20505;-68
2022/03/21 05:00:13;;;;;;;43.60;26.42;;;;;;;;;;4825816;29;20090;-68
2022/03/21 05:02:39;;;;;;;43.22;26.30;;;;;;;;;;4841559;29;20046;-67
2022/03/21 05:05:06;;;;;;;45.40;25.92;;;;;;;;;;4841628;29;20137;-67
2022/03/21 05:07:32;;;;;;;;;;;;;;;;;;4828009;29;20051;-68
2022/03/21 05:09:58;;;;;;;42.50;26.50;;;;;;;;;;4810920;29;19924;-68
2022/03/21 05:12:24;;;;;;;41.15;25.20;;;;;;;;;;4826972;29;20046;-67
2022/03/21 05:14:50;;;;;;;44.85;26.15;;;;;;;;;;4827220;29;20077;-67
2022/03/21 05:17:17;;;;;;;43.38;25.33;;;;;;;;;;4825935;29;20046;-68
2022/03/21 05:19:44;;;;;;;43.53;26.63;;;;;;;;;;4827973;29;20058;-67
2022/03/21 05:22:10;;;;;;;44.88;26.55;;;;;;;;;;4841101;29;20415;-67
2022/03/21 05:35:56;;;;;;;;;;;;;;;;;;4826391;29;20058;-68
2022/03/21 05:38:26;;;;;;;50.30;30.08;;;;;;;;;;4809516;29;19981;-68
2022/03/21 05:40:56;;;;;;;45.85;27.55;;;;;;;;;;4840514;29;20058;-68
2022/03/21 05:43:23;;;;;;;43.55;27.00;;;;;;;;;;4823659;29;20522;-68
2022/03/21 05:45:49;;;;;;;;;;;;;;;;;;4825839;29;20085;-68
2022/03/21 05:51:01;;;;;;;47.35;29.48;;;;;;;;;;4824072;29;20062;-68
2022/03/21 05:53:27;;;;;;;46.35;27.95;;;;;;;;;;4825244;29;20086;-69
2022/03/21 05:55:55;;;;;;;51.00;28.85;;;;;;;;;;4808128;29;20129;-68
2022/03/21 05:58:21;;;;;;;48.10;29.23;;;;;;;;;;4839005;29;20058;-68
2022/03/21 06:00:47;;;;;;;47.90;28.85;;;;;;;;;;4824414;29;20046;-68
2022/03/21 06:03:13;;;;;;;46.63;29.23;;;;;;;;;;4824273;29;20134;-68
2022/03/21 06:05:40;;;;;;;52.83;29.10;;;;;;;;;;4837140;29;20058;-68
2022/03/21 06:08:08;;;;;;;49.22;28.90;;;;;;;;;;4823675;29;20046;-67
2022/03/21 06:10:36;;;;;;;46.25;28.50;;;;;;;;;;4824742;29;20063;-69
2022/03/21 06:13:05;;;;;;;47.25;27.58;;;;;;;;;;4824160;29;20042;-68
2022/03/21 06:15:31;;;;;;;49.17;29.08;;;;;;;;;;4824107;29;20480;-69
2022/03/21 06:17:59;;;;;;;44.95;27.73;;;;;;;;;;4777884;29;20068;-68
2022/03/21 06:20:28;;;;;;;46.60;26.98;;;;;;;;;;4778373;29;20062;-69
2022/03/21 06:22:54;;;;;;;48.70;28.40;;;;;;;;;;4838419;29;20074;-68
2022/03/21 06:25:21;;;;;;;45.78;29.45;;;;;;;;;;4823944;29;20054;-67
2022/03/21 06:27:48;;;;;;;47.72;29.35;;;;;;;;;;4823952;29;20050;-67
2022/03/21 06:30:15;;;;;;;51.70;29.75;;;;;;;;;;4824592;29;20090;-68
2022/03/21 06:32:40;;;;;;;;;;;;;;;;;;4837751;29;20414;-68
2022/03/21 06:35:09;;;;;;;48.50;30.85;;;;;;;;;;4823888;29;19925;-68
2022/03/21 06:37:36;;;;;;;54.58;32.13;;;;;;;;;;4823563;29;20407;-68
2022/03/21 06:40:02;;;;;;;47.95;29.08;;;;;;;;;;4807405;29;20050;-68
2022/03/21 06:42:31;;;;;;;49.40;29.45;;;;;;;;;;4793114;29;20057;-68
2022/03/21 06:44:57;;;;;;;54.55;31.42;;;;;;;;;;4824028;29;20130;-68
2022/03/21 06:47:24;;;;;;;49.90;30.88;;;;;;;;;;4838328;29;20046;-68
2022/03/21 06:49:50;;;;;;;50.28;30.73;;;;;;;;;;4837268;29;20482;-66
2022/03/21 06:52:19;;;;;;;47.35;29.48;;;;;;;;;;4823666;29;20159;-67
2022/03/21 06:54:49;;;;;;;55.25;30.75;;;;;;;;;;4823914;29;20072;-68
2022/03/21 06:57:16;;;;;;;53.70;35.08;;;;;;;;;;4777367;29;20057;-66
2022/03/21 06:59:42;;;;;;;53.78;34.78;;;;;;;;;;4823405;29;20150;-67
2022/03/21 07:02:08;;;;;;;52.20;31.73;;;;;;;;;;4823385;29;20054;-69
2022/03/21 07:04:34;;;;;;;48.00;28.42;;;;;;;;;;4822808;29;20061;-70
2022/03/21 07:07:01;;;;;;;57.67;30.58;;;;;;;;;;4822437;29;20054;-69
2022/03/21 07:09:27;;;;;;;49.03;29.67;;;;;;;;;;4822967;29;20062;-73
2022/03/21 07:11:53;;;;;;;51.92;30.55;;;;;;;;;;4823412;29;20507;-69
2022/03/21 07:14:19;;;;;;;51.67;30.95;;;;;;;;;;4823226;29;20118;-68
2022/03/21 07:16:45;;;;;;;;;;;;;;;;;;4837182;29;20122;-69
2022/03/21 07:19:12;;;;;;;63.63;36.47;;;;;;;;;;4822626;29;19929;-70
2022/03/21 07:21:41;;;;;;;68.45;40.33;;;;;;;;;;4823522;29;20062;-69
2022/03/21 07:24:10;;;;;;;65.95;38.03;;;;;;;;;;4823344;29;20153;-69
2022/03/21 07:26:37;;;;;;;59.13;36.05;;;;;;;;;;4807355;29;20054;-69
2022/03/21 07:29:07;;;;;;;58.50;35.17;;;;;;;;;;4823635;29;20058;-69
2022/03/21 07:31:34;;;;;;;61.70;36.65;;;;;;;;;;4822147;29;20098;-69
2022/03/21 07:34:00;;;;;;;56.72;34.38;;;;;;;;;;4836840;29;20051;-69
2022/03/21 07:36:26;;;;;;;56.85;33.97;;;;;;;;;;4822886;29;20053;-68
2022/03/21 07:38:52;;;;;;;51.35;31.35;;;;;;;;;;4837078;29;20054;-69
2022/03/21 07:41:18;;;;;;;48.72;29.77;;;;;;;;;;4837520;29;20058;-68
2022/03/21 07:43:47;;;;;;;45.22;28.33;;;;;;;;;;4823092;29;20046;-68
2022/03/21 07:48:58;;;;;;;41.92;24.77;;;;;;;;;;4822519;29;20062;-68
2022/03/21 07:51:24;;;;;;;39.47;24.00;;;;;;;;;;4821981;29;20391;-68
2022/03/21 07:53:52;;;;;;;42.92;25.48;;;;;;;;;;4806760;29;20050;-67
2022/03/21 07:56:19;;;;;;;40.25;25.02;;;;;;;;;;4836830;29;20058;-68
2022/03/21 07:58:45;;;;;;;43.30;24.48;;;;;;;;;;4776526;29;20050;-69
2022/03/21 08:01:11;;;;;;;42.05;25.00;;;;;;;;;;4822635;29;20047;-69
2022/03/21 08:03:37;;;;;;;45.60;26.88;;;;;;;;;;4807084;29;20043;-68
2022/03/21 08:06:08;;;;;;;49.47;28.73;;;;;;;;;;4821433;29;20137;-67
2022/03/21 08:08:34;;;;;;;49.30;27.48;;;;;;;;;;4792667;29;20058;-69
2022/03/21 08:11:01;;;;;;;47.92;27.05;;;;;;;;;;4805999;29;20107;-70
2022/03/21 08:13:27;;;;;;;49.65;27.63;;;;;;;;;;4824302;29;20046;-70
2022/03/21 08:15:53;;;;;;;57.75;26.20;;;;;;;;;;4840070;29;20054;-74
2022/03/21 08:18:19;;;;;;;44.53;26.33;;;;;;;;;;4825578;29;20194;-74
2022/03/21 08:20:45;;;;;;;53.95;27.10;;;;;;;;;;4825831;29;20046;-70
2022/03/21 08:23:12;;;;;;;43.72;25.20;;;;;;;;;;4780056;29;20161;-69
2022/03/21 08:25:39;;;;;;;45.20;26.70;;;;;;;;;;4825270;29;20043;-67
2022/03/21 08:28:06;;;;;;;44.30;24.02;;;;;;;;;;4825556;29;20057;-67
2022/03/21 08:30:35;;;;;;;42.80;24.55;;;;;;;;;;4809615;29;20050;-68
2022/03/21 08:33:03;;;;;;;41.10;24.63;;;;;;;;;;4839761;29;20054;-67
2022/03/21 08:35:32;;;;;;;47.20;26.75;;;;;;;;;;4839941;29;20054;-67
2022/03/21 08:37:59;;;;;;;47.65;25.35;;;;;;;;;;4839722;29;20046;-67
2022/03/21 08:40:25;;;;;;;41.05;24.38;;;;;;;;;;4824634;29;20142;-67
2022/03/21 08:42:51;;;;;;;43.72;24.92;;;;;;;;;;4825266;29;20391;-67
2022/03/21 08:45:21;;;;;;;46.67;25.15;;;;;;;;;;4840378;29;20050;-67
2022/03/21 08:47:47;;;;;;;41.65;25.10;;;;;;;;;;4825395;29;20100;-68
2022/03/21 08:50:14;;;;;;;46.50;25.98;;;;;;;;;;4809798;29;20129;-69
2022/03/21 08:52:40;;;;;;;51.80;26.50;;;;;;;;;;4840163;29;20062;-68
2022/03/21 08:55:06;;;;;;;45.88;26.20;;;;;;;;;;4825253;29;20061;-66
2022/03/21 08:57:33;;;;;;;45.97;23.70;;;;;;;;;;4839462;29;20141;-67
2022/03/21 08:59:59;;;;;;;41.08;24.50;;;;;;;;;;4809326;29;20133;-68
2022/03/21 09:02:26;;;;;;;45.25;25.40;;;;;;;;;;4824332;29;20058;-68
2022/03/21 09:04:52;;;;;;;43.38;25.40;;;;;;;;;;4839439;29;20091;-68
2022/03/21 09:07:19;;;;;;;45.13;25.17;;;;;;;;;;4825357;29;20065;-67
2022/03/21 09:09:45;;;;;;;43.88;25.45;;;;;;;;;;4838976;29;20225;-67
2022/03/21 09:12:12;;;;;;;46.05;28.48;;;;;;;;;;4809255;29;20433;-67
2022/03/21 09:14:38;;;;;;;44.83;24.30;;;;;;;;;;4824996;29;20054;-67
2022/03/21 09:17:05;;;;;;;49.25;25.67;;;;;;;;;;4839138;29;20050;-68
2022/03/21 09:19:31;;;;;;;;;;;;;;;;;;4825264;29;20062;-68
2022/03/21 09:21:57;;;;;;;46.90;24.27;;;;;;;;;;4808601;29;19925;-68
2022/03/21 09:24:24;;;;;;;42.90;23.33;;;;;;;;;;4823947;29;20062;-66
2022/03/21 09:26:50;;;;;;;41.03;23.55;;;;;;;;;;4838558;29;20536;-67
2022/03/21 09:29:16;;;;;;;40.50;23.15;;;;;;;;;;4825202;29;20184;-70
2022/03/21 09:31:43;;;;;;;43.30;23.05;;;;;;;;;;4824750;29;20058;-66
2022/03/21 09:34:10;;;;;;;40.80;22.38;;;;;;;;;;4807766;29;20078;-69
2022/03/21 09:36:36;;;;;;;40.63;22.67;;;;;;;;;;4825325;29;20058;-66
2022/03/21 09:39:02;;;;;;;40.67;23.20;;;;;;;;;;4824645;29;20133;-73
2022/03/21 09:41:30;;;;;;;39.38;23.42;;;;;;;;;;4825388;29;20142;-67
2022/03/21 09:43:57;;;;;;;45.55;22.70;;;;;;;;;;4824938;29;20088;-66
2022/03/21 09:46:24;;;;;;;41.05;21.90;;;;;;;;;;4838596;29;20157;-66
2022/03/21 09:48:52;;;;;;;37.33;21.20;;;;;;;;;;4824222;29;20496;-69
2022/03/21 09:51:22;;;;;;;39.15;20.60;;;;;;;;;;4824318;29;20492;-65
2022/03/21 09:53:48;;;;;;;39.85;22.33;;;;;;;;;;4823984;29;20054;-71
2022/03/21 09:56:14;;;;;;;;;;;;;;;;;;4824360;29;20062;-67
2022/03/21 09:58:40;;;;;;;38.15;20.85;;;;;;;;;;4808031;29;19931;-66
2022/03/21 10:01:06;;;;;;;39.92;20.90;;;;;;;;;;4824419;29;20054;-77
2022/03/21 10:03:36;;;;;;;38.58;21.02;;;;;;;;;;4808503;29;20133;-67
2022/03/21 10:06:02;;;;;;;35.47;20.70;;;;;;;;;;4823436;29;20411;-68
2022/03/21 10:08:29;;;;;;;34.58;19.70;;;;;;;;;;4824868;29;20058;-68
2022/03/21 10:10:59;;;;;;;49.67;20.13;;;;;;;;;;4807493;29;20069;-68
2022/03/21 10:13:30;;;;;;;40.08;20.40;;;;;;;;;;4807904;29;20488;-69
2022/03/21 10:16:12;;;;;;;54.45;20.35;;;;;;;;;;4807430;29;20081;-70
2022/03/21 10:18:39;;;;;;;36.92;20.08;;;;;;;;;;4822987;29;20060;-68
2022/03/21 10:21:15;;;;;;;35.80;19.60;;;;;;;;;;4837878;29;20050;-73
2022/03/21 10:23:44;;;;;;;33.03;20.10;;;;;;;;;;4823956;29;20166;-75
2022/03/21 10:26:29;;;;;;;36.05;19.55;;;;;;;;;;4837744;29;20436;-66
2022/03/21 10:28:56;;;;;;;34.13;18.35;;;;;;;;;;4823736;29;20093;-69
2022/03/21 10:31:43;;;;;;;36.17;20.55;;;;;;;;;;4823873;29;20141;-66
2022/03/21 10:34:13;;;;;;;35.90;20.00;;;;;;;;;;4823728;29;20567;-74
2022/03/21 10:36:59;;;;;;;33.22;18.77;;;;;;;;;;4823260;29;20050;-69
2022/03/21 10:39:25;;;;;;;36.17;18.98;;;;;;;;;;4824122;29;20057;-78
2022/03/21 10:41:55;;;;;;;32.35;18.98;;;;;;;;;;4792407;29;20061;-74
2022/03/21 10:44:22;;;;;;;32.65;18.95;;;;;;;;;;4839447;29;20058;-80
2022/03/21 10:46:52;;;;;;;34.03;19.80;;;;;;;;;;4823758;29;20057;-74
2022/03/21 10:49:25;;;;;;;37.60;19.38;;;;;;;;;;4823770;29;20054;-68
2022/03/21 10:51:56;;;;;;;34.28;19.35;;;;;;;;;;4837737;29;20141;-77
2022/03/21 10:54:34;;;;;;;36.10;19.95;;;;;;;;;;4806899;29;20061;-70
2022/03/21 10:57:00;;;;;;;34.40;20.33;;;;;;;;;;4807222;29;20093;-78
2022/03/21 10:59:27;;;;;;;38.95;21.00;;;;;;;;;;4837908;29;20054;-75
2022/03/21 11:02:10;;;;;;;36.10;21.08;;;;;;;;;;4825194;29;20060;-76
2022/03/21 11:04:37;;;;;;;36.97;21.20;;;;;;;;;;4837716;29;20058;-70
2022/03/21 11:07:12;;;;;;;33.15;19.98;;;;;;;;;;4823523;29;20077;-75
2022/03/21 11:09:44;;;;;;;39.63;19.60;;;;;;;;;;4822830;29;20074;-69
2022/03/21 11:12:10;;;;;;;36.20;20.48;;;;;;;;;;4822943;29;20128;-69
2022/03/21 11:14:38;;;;;;;36.05;20.63;;;;;;;;;;4822857;29;20054;-67
2022/03/21 11:17:05;;;;;;;34.35;20.40;;;;;;;;;;4806888;29;20115;-70
2022/03/21 11:19:32;;;;;;;37.28;20.90;;;;;;;;;;4821832;29;20061;-70
2022/03/21 11:22:02;;;;;;;33.08;20.33;;;;;;;;;;4823059;29;20077;-69
2022/03/21 11:24:29;;;;;;;37.50;22.23;;;;;;;;;;4836978;29;20484;-73
2022/03/21 11:27:07;;;;;;;37.20;21.88;;;;;;;;;;4822896;29;20082;-70
2022/03/21 11:29:36;;;;;;;35.35;20.85;;;;;;;;;;4836764;29;20134;-71
2022/03/21 11:32:09;;;;;;;36.08;21.10;;;;;;;;;;4823460;29;20133;-67
2022/03/21 11:34:54;;;;;;;34.00;20.13;;;;;;;;;;4822578;29;20061;-69
2022/03/21 11:37:38;;;;;;;34.17;19.27;;;;;;;;;;4823027;29;20058;-66
2022/03/21 11:40:23;;;;;;;34.00;20.38;;;;;;;;;;4822966;29;20476;-68
2022/03/21 11:42:53;;;;;;;40.22;19.40;;;;;;;;;;4836358;29;20058;-70
2022/03/21 11:45:26;;;;;;;34.13;19.98;;;;;;;;;;4822273;29;20093;-78
2022/03/21 11:48:11;;;;;;;34.10;20.38;;;;;;;;;;4823495;29;20133;-70
2022/03/21 11:50:37;;;;;;;34.00;20.00;;;;;;;;;;4840216;29;20057;-73
2022/03/21 11:53:10;;;;;;;35.58;19.25;;;;;;;;;;4825876;29;20057;-71
2022/03/21 11:55:37;;;;;;;35.00;19.52;;;;;;;;;;4825773;29;20051;-70
2022/03/21 11:58:22;;;;;;;31.98;19.92;;;;;;;;;;4826102;29;20077;-72
2022/03/21 12:01:07;;;;;;;35.20;19.85;;;;;;;;;;4826141;29;20146;-70
2022/03/21 12:03:34;;;;;;;35.97;19.77;;;;;;;;;;4840108;29;20191;-71
2022/03/21 12:06:36;;;;;;;34.05;19.80;;;;;;;;;;4826731;29;20062;-70
2022/03/21 12:09:12;;;;;;;34.33;18.85;;;;;;;;;;4785926;29;20054;-71
2022/03/21 12:11:38;;;;;;;33.97;19.55;;;;;;;;;;4803915;29;20085;-72
2022/03/21 12:14:22;;;;;;;45.47;25.10;;;;;;;;;;4789003;30;20074;-70
2022/03/21 12:17:08;;;;;;;34.53;18.45;;;;;;;;;;4789879;30;20086;-70
2022/03/21 12:19:55;;;;;;;35.50;18.50;;;;;;;;;;4780123;29;20070;-70
2022/03/21 12:22:30;;;;;;;32.10;18.67;;;;;;;;;;4789480;30;20198;-70
2022/03/21 12:25:01;;;;;;;32.22;18.48;;;;;;;;;;4789491;30;20051;-72
2022/03/21 12:27:31;;;;;;;38.10;21.92;;;;;;;;;;4790011;29;20058;-71
2022/03/21 12:30:18;;;;;;;34.38;18.42;;;;;;;;;;4819125;29;20416;-72
2022/03/21 12:32:56;;;;;;;33.35;18.63;;;;;;;;;;4779944;29;20134;-69
2022/03/21 12:35:31;;;;;;;32.88;17.73;;;;;;;;;;4789442;30;20093;-67
2022/03/21 12:38:17;;;;;;;54.13;17.85;;;;;;;;;;4789577;30;20108;-69
2022/03/21 12:41:02;;;;;;;31.75;16.75;;;;;;;;;;4788833;30;20104;-68
2022/03/21 12:43:32;;;;;;;32.08;17.13;;;;;;;;;;4788959;30;20142;-67
2022/03/21 12:46:07;;;;;;;38.10;19.90;;;;;;;;;;4789987;30;20058;-68
2022/03/21 12:48:34;;;;;;;31.08;17.83;;;;;;;;;;4789325;30;20647;-69
2022/03/21 12:51:01;;;;;;;30.02;17.77;;;;;;;;;;4789860;30;20051;-70
2022/03/21 12:53:27;;;;;;;;;;;;;;;;;;4788601;30;20047;-69
2022/03/21 12:56:03;;;;;;;33.65;17.80;;;;;;;;;;4787763;30;20359;-68
2022/03/21 12:58:29;;;;;;;35.28;17.05;;;;;;;;;;4788719;30;20067;-67
2022/03/21 13:01:00;;;;;;;30.15;16.23;;;;;;;;;;4787713;30;20207;-66
2022/03/21 13:03:29;;;;;;;29.77;17.45;;;;;;;;;;4787942;30;20446;-67
2022/03/21 13:11:29;;;;;;;32.78;17.30;;;;;;;;;;4820802;29;20070;-65
2022/03/21 13:13:56;;;;;;;29.75;16.92;;;;;;;;;;4824853;29;20059;-66
2022/03/21 13:16:23;;;;;;;35.83;18.23;;;;;;;;;;4839507;29;20393;-67
2022/03/21 13:18:52;;;;;;;26.80;16.60;;;;;;;;;;4825339;29;20055;-64
2022/03/21 13:21:19;;;;;;;33.08;17.35;;;;;;;;;;4824185;29;20058;-67
2022/03/21 13:23:50;;;;;;;30.70;16.25;;;;;;;;;;4838658;29;20066;-66
2022/03/21 13:26:22;;;;;;;35.17;17.67;;;;;;;;;;4824326;29;20062;-67
2022/03/21 13:28:49;;;;;;;33.20;18.63;;;;;;;;;;4825755;29;20114;-67
2022/03/21 13:31:23;;;;;;;33.08;17.58;;;;;;;;;;4825149;29;20133;-67
2022/03/21 13:33:58;;;;;;;31.90;17.98;;;;;;;;;;4839207;29;20046;-66
2022/03/21 13:36:25;;;;;;;30.67;15.77;;;;;;;;;;4808849;29;20062;-69
2022/03/21 13:39:11;;;;;;;30.65;16.52;;;;;;;;;;4823881;29;20054;-67
2022/03/21 13:42:07;;;;;;;28.95;16.83;;;;;;;;;;4824392;29;20054;-67
2022/03/21 13:44:49;;;;;;;31.58;17.00;;;;;;;;;;4809781;29;20054;-68
2022/03/21 13:47:24;;;;;;;27.00;14.80;;;;;;;;;;4838079;29;20428;-65
2022/03/21 13:49:53;;;;;;;27.70;14.73;;;;;;;;;;4823061;29;20062;-66
2022/03/21 13:52:38;;;;;;;30.33;15.63;;;;;;;;;;4838316;29;20050;-67
2022/03/21 13:55:04;;;;;;;31.88;17.02;;;;;;;;;;4824167;29;20058;-67
2022/03/21 13:57:30;;;;;;;29.95;15.70;;;;;;;;;;4824210;29;20065;-66
2022/03/21 14:00:01;;;;;;;27.17;15.98;;;;;;;;;;4824971;29;20103;-67
2022/03/21 14:02:30;;;;;;;31.40;16.42;;;;;;;;;;4838066;29;20050;-68
2022/03/21 14:04:57;;;;;;;30.00;16.20;;;;;;;;;;4824377;29;20061;-67
2022/03/21 14:07:32;;;;;;;34.70;17.75;;;;;;;;;;4824372;29;20440;-66
2022/03/21 14:09:58;;;;;;;34.25;16.58;;;;;;;;;;4823354;29;20491;-68
2022/03/21 14:12:29;;;;;;;30.48;16.63;;;;;;;;;;4791513;29;20115;-68
2022/03/21 14:14:55;;;;;;;32.30;17.48;;;;;;;;;;4806403;29;20092;-65
2022/03/21 14:17:21;;;;;;;28.77;16.67;;;;;;;;;;4807067;29;20054;-67
2022/03/21 14:19:47;;;;;;;33.22;17.23;;;;;;;;;;4823226;29;20477;-65
2022/03/21 14:22:13;;;;;;;32.63;16.95;;;;;;;;;;4792536;29;20631;-68
2022/03/21 14:24:39;;;;;;;31.40;17.50;;;;;;;;;;4823477;29;20073;-66
2022/03/21 14:27:06;;;;;;;31.00;17.25;;;;;;;;;;4822866;29;20094;-67
2022/03/21 14:29:32;;;;;;;;;;;;;;;;;;4821947;29;20058;-66
2022/03/21 14:31:58;;;;;;;30.55;17.98;;;;;;;;;;4806754;29;19932;-68
2022/03/21 14:34:25;;;;;;;;;;;;;;;;;;4837578;29;20445;-67
2022/03/21 14:36:53;;;;;;;30.02;17.10;;;;;;;;;;4822557;29;19928;-64
2022/03/21 14:39:19;;;;;;;31.27;16.73;;;;;;;;;;4823228;29;20073;-65
2022/03/21 14:41:45;;;;;;;30.10;17.08;;;;;;;;;;4822695;29;20055;-68
2022/03/21 14:44:12;;;;;;;;;;;;;;;;;;4806539;29;20054;-68
2022/03/21 14:46:38;;;;;;;29.50;16.40;;;;;;;;;;4821205;29;20011;-68
2022/03/21 14:49:05;;;;;;;29.92;16.60;;;;;;;;;;4822424;29;20046;-65
2022/03/21 14:51:34;;;;;;;35.63;17.67;;;;;;;;;;4823154;29;20085;-68
2022/03/21 14:54:01;;;;;;;30.65;17.70;;;;;;;;;;4822396;29;20054;-66
2022/03/21 14:56:28;;;;;;;39.30;17.23;;;;;;;;;;4821166;29;20119;-69